createdAt,value
2018-12-29T00:00:12.446Z,0
2018-12-29T00:01:13.116Z,0
2018-12-29T00:02:13.789Z,0
2018-12-29T00:03:14.457Z,0
2018-12-29T00:04:15.128Z,0
2018-12-29T00:05:15.798Z,0
2018-12-29T00:06:16.468Z,0
2018-12-29T00:07:17.142Z,0
2018-12-29T00:08:17.811Z,0
2018-12-29T00:09:18.482Z,0
2018-12-29T00:10:19.153Z,0
2018-12-29T00:11:19.822Z,0
2018-12-29T00:12:20.491Z,0
2018-12-29T00:13:21.160Z,0
2018-12-29T00:14:21.830Z,0
2018-12-29T00:15:22.502Z,0
2018-12-29T00:16:23.172Z,0
2018-12-29T00:17:23.841Z,0
2018-12-29T00:18:24.511Z,0
2018-12-29T00:19:25.181Z,0
2018-12-29T00:20:25.855Z,0
2018-12-29T00:21:26.522Z,0
2018-12-29T00:22:27.193Z,0
2018-12-29T00:23:27.862Z,0
2018-12-29T00:24:28.532Z,0
2018-12-29T00:25:29.202Z,0
2018-12-29T00:26:29.922Z,0
2018-12-29T00:27:30.591Z,0
2018-12-29T00:28:31.261Z,0
2018-12-29T00:29:31.930Z,0
2018-12-29T00:30:32.602Z,0
2018-12-29T00:31:33.273Z,0
2018-12-29T00:32:33.942Z,0
2018-12-29T00:33:34.614Z,0
2018-12-29T00:34:35.284Z,0
2018-12-29T00:35:35.953Z,0
2018-12-29T00:36:36.623Z,0
2018-12-29T00:37:37.293Z,0
2018-12-29T00:38:37.964Z,0
2018-12-29T00:39:38.633Z,0
2018-12-29T00:40:39.306Z,0
2018-12-29T00:41:39.976Z,0
2018-12-29T00:42:40.645Z,0
2018-12-29T00:43:41.316Z,0
2018-12-29T00:44:41.987Z,0
2018-12-29T00:45:42.704Z,0
2018-12-29T00:46:43.376Z,0
2018-12-29T00:47:44.047Z,0
2018-12-29T00:48:44.719Z,0
2018-12-29T00:49:45.388Z,0
2018-12-29T00:50:46.058Z,0
2018-12-29T00:51:46.728Z,0
2018-12-29T00:52:47.400Z,0
2018-12-29T00:53:48.070Z,0
2018-12-29T00:54:48.738Z,0
2018-12-29T00:55:49.408Z,0
2018-12-29T00:56:50.080Z,0
2018-12-29T00:57:50.750Z,0
2018-12-29T00:58:51.420Z,0
2018-12-29T00:59:52.092Z,0
2018-12-29T01:00:52.762Z,0
2018-12-29T01:01:53.480Z,0
2018-12-29T01:02:54.152Z,0
2018-12-29T01:03:54.822Z,0
2018-12-29T01:04:55.492Z,0
2018-12-29T01:05:56.164Z,0
2018-12-29T01:06:56.832Z,0
2018-12-29T01:07:57.502Z,0
2018-12-29T01:08:58.172Z,0
2018-12-29T01:09:58.843Z,0
2018-12-29T01:10:59.512Z,0
2018-12-29T01:12:00.183Z,0
2018-12-29T01:13:00.853Z,0
2018-12-29T01:14:01.572Z,0
2018-12-29T01:15:02.259Z,0
2018-12-29T01:16:03.902Z,0
2018-12-29T01:17:04.572Z,0
2018-12-29T01:18:05.243Z,0
2018-12-29T01:19:05.913Z,0
2018-12-29T01:20:06.586Z,0
2018-12-29T01:21:07.253Z,0
2018-12-29T01:22:07.923Z,0
2018-12-29T01:23:08.634Z,0
2018-12-29T01:24:09.343Z,0
2018-12-29T01:25:09.976Z,0
2018-12-29T01:26:10.644Z,0
2018-12-29T01:27:11.318Z,0
2018-12-29T01:28:11.984Z,0
2018-12-29T01:29:12.655Z,0
2018-12-29T01:30:13.375Z,0
2018-12-29T01:31:14.046Z,0
2018-12-29T01:32:14.719Z,0
2018-12-29T01:33:15.387Z,0
2018-12-29T01:34:16.057Z,0
2018-12-29T01:35:16.727Z,0
2018-12-29T01:36:17.398Z,0
2018-12-29T01:37:18.116Z,0
2018-12-29T01:38:18.794Z,0
2018-12-29T01:39:19.454Z,0
2018-12-29T01:40:20.124Z,0
2018-12-29T01:41:20.795Z,0
2018-12-29T01:42:21.466Z,0
2018-12-29T01:43:22.135Z,0
2018-12-29T01:44:22.810Z,0
2018-12-29T01:45:23.477Z,0
2018-12-29T01:46:24.147Z,0
2018-12-29T01:47:24.817Z,0
2018-12-29T01:48:25.487Z,0
2018-12-29T01:49:26.158Z,0
2018-12-29T01:50:26.828Z,0
2018-12-29T01:51:27.563Z,0
2018-12-29T01:52:28.186Z,0
2018-12-29T01:53:28.857Z,0
2018-12-29T01:54:29.527Z,0
2018-12-29T01:55:30.197Z,0
2018-12-29T01:56:30.869Z,0
2018-12-29T01:57:31.542Z,0
2018-12-29T01:58:32.206Z,0
2018-12-29T01:59:32.876Z,0
2018-12-29T02:00:33.595Z,0
2018-12-29T02:01:34.264Z,0
2018-12-29T02:02:34.935Z,0
2018-12-29T02:03:35.606Z,0
2018-12-29T02:04:36.275Z,0
2018-12-29T02:05:36.946Z,0
2018-12-29T02:06:37.617Z,0
2018-12-29T02:07:38.289Z,0
2018-12-29T02:08:38.957Z,0
2018-12-29T02:09:39.628Z,0
2018-12-29T02:10:40.298Z,0
2018-12-29T02:11:40.966Z,0
2018-12-29T02:12:41.638Z,0
2018-12-29T02:13:42.306Z,0
2018-12-29T02:14:42.977Z,0
2018-12-29T02:15:43.646Z,0
2018-12-29T02:16:44.317Z,0
2018-12-29T02:17:44.987Z,0
2018-12-29T02:18:45.657Z,0
2018-12-29T02:19:46.331Z,0
2018-12-29T02:20:46.997Z,0
2018-12-29T02:21:47.668Z,0
2018-12-29T02:22:48.338Z,0
2018-12-29T02:23:49.007Z,0
2018-12-29T02:24:49.677Z,0
2018-12-29T02:25:50.345Z,0
2018-12-29T02:26:51.016Z,0
2018-12-29T02:27:51.686Z,0
2018-12-29T02:28:52.357Z,0
2018-12-29T02:29:53.024Z,0
2018-12-29T02:30:53.695Z,0
2018-12-29T02:31:54.365Z,0
2018-12-29T02:32:55.035Z,0
2018-12-29T02:33:55.708Z,0
2018-12-29T02:34:56.378Z,0
2018-12-29T02:35:57.081Z,0
2018-12-29T02:36:57.716Z,0
2018-12-29T02:37:58.386Z,0
2018-12-29T02:38:59.057Z,0
2018-12-29T02:39:59.737Z,0
2018-12-29T02:41:00.445Z,0
2018-12-29T02:42:01.116Z,0
2018-12-29T02:43:01.784Z,0
2018-12-29T02:44:02.501Z,0
2018-12-29T02:45:03.173Z,0
2018-12-29T02:46:03.838Z,0
2018-12-29T02:47:04.510Z,0
2018-12-29T02:48:05.177Z,0
2018-12-29T02:49:05.846Z,0
2018-12-29T02:50:06.514Z,0
2018-12-29T02:51:07.183Z,0
2018-12-29T02:52:07.851Z,0
2018-12-29T02:53:08.522Z,0
2018-12-29T02:54:09.188Z,0
2018-12-29T02:55:09.859Z,0
2018-12-29T02:56:10.533Z,0
2018-12-29T02:57:11.198Z,0
2018-12-29T02:58:11.869Z,0
2018-12-29T02:59:12.538Z,0
2018-12-29T03:00:13.209Z,0
2018-12-29T03:01:13.877Z,0
2018-12-29T03:02:14.551Z,0
2018-12-29T03:03:15.268Z,0
2018-12-29T03:04:15.936Z,0
2018-12-29T03:05:16.607Z,0
2018-12-29T03:06:17.285Z,0
2018-12-29T03:07:17.946Z,0
2018-12-29T03:08:18.617Z,0
2018-12-29T03:09:19.286Z,0
2018-12-29T03:10:19.953Z,0
2018-12-29T03:11:20.623Z,0
2018-12-29T03:12:21.294Z,0
2018-12-29T03:13:21.965Z,0
2018-12-29T03:14:22.630Z,0
2018-12-29T03:15:23.299Z,0
2018-12-29T03:16:23.970Z,0
2018-12-29T03:17:24.641Z,0
2018-12-29T03:18:25.309Z,0
2018-12-29T03:19:25.984Z,0
2018-12-29T03:20:26.649Z,0
2018-12-29T03:21:27.316Z,0
2018-12-29T03:22:27.985Z,0
2018-12-29T03:23:28.657Z,0
2018-12-29T03:24:29.326Z,0
2018-12-29T03:25:29.995Z,0
2018-12-29T03:26:30.663Z,0
2018-12-29T03:27:31.334Z,0
2018-12-29T03:28:32.002Z,0
2018-12-29T03:29:32.671Z,0
2018-12-29T03:30:33.344Z,0
2018-12-29T03:31:34.011Z,0
2018-12-29T03:32:34.683Z,0
2018-12-29T03:33:35.354Z,0
2018-12-29T03:34:36.026Z,0
2018-12-29T03:35:36.686Z,0
2018-12-29T03:36:37.371Z,0
2018-12-29T03:37:38.024Z,0
2018-12-29T03:38:38.695Z,0
2018-12-29T03:39:39.365Z,0
2018-12-29T03:40:40.034Z,0
2018-12-29T03:41:40.705Z,0
2018-12-29T03:42:41.374Z,0
2018-12-29T03:43:42.046Z,0
2018-12-29T03:44:42.713Z,0
2018-12-29T03:45:49.112Z,0
2018-12-29T03:46:44.095Z,0
2018-12-29T03:47:44.764Z,0
2018-12-29T03:48:45.435Z,0
2018-12-29T03:49:46.102Z,0
2018-12-29T03:50:46.773Z,0
2018-12-29T03:51:47.441Z,0
2018-12-29T03:52:48.117Z,0
2018-12-29T03:53:48.785Z,0
2018-12-29T03:54:49.454Z,0
2018-12-29T03:55:50.127Z,0
2018-12-29T03:56:50.847Z,0
2018-12-29T03:57:51.516Z,0
2018-12-29T03:58:52.191Z,0
2018-12-29T03:59:52.855Z,0
2018-12-29T04:00:53.529Z,0
2018-12-29T04:01:54.248Z,0
2018-12-29T04:02:54.917Z,0
2018-12-29T04:03:55.636Z,0
2018-12-29T04:04:56.306Z,0
2018-12-29T04:05:56.977Z,0
2018-12-29T04:06:57.697Z,0
2018-12-29T04:07:58.366Z,0
2018-12-29T04:08:59.037Z,0
2018-12-29T04:09:59.707Z,0
2018-12-29T04:11:00.381Z,0
2018-12-29T04:12:01.050Z,0
2018-12-29T04:13:01.725Z,0
2018-12-29T04:14:02.440Z,0
2018-12-29T04:15:03.108Z,0
2018-12-29T04:16:03.784Z,0
2018-12-29T04:17:04.504Z,0
2018-12-29T04:18:05.168Z,0
2018-12-29T04:19:05.837Z,0
2018-12-29T04:20:06.510Z,0
2018-12-29T04:21:07.230Z,0
2018-12-29T04:22:07.941Z,0
2018-12-29T04:23:08.577Z,0
2018-12-29T04:24:09.247Z,0
2018-12-29T04:25:09.915Z,0
2018-12-29T04:26:10.586Z,0
2018-12-29T04:27:11.258Z,0
2018-12-29T04:28:11.926Z,0
2018-12-29T04:29:12.599Z,0
2018-12-29T04:30:13.266Z,0
2018-12-29T04:31:13.936Z,0
2018-12-29T04:32:14.610Z,0
2018-12-29T04:33:15.278Z,0
2018-12-29T04:34:15.949Z,0
2018-12-29T04:35:16.618Z,0
2018-12-29T04:36:17.288Z,0
2018-12-29T04:37:17.988Z,0
2018-12-29T04:38:18.701Z,0
2018-12-29T04:39:19.370Z,0
2018-12-29T04:40:20.041Z,0
2018-12-29T04:41:20.711Z,0
2018-12-29T04:42:21.382Z,0
2018-12-29T04:43:22.051Z,0
2018-12-29T04:44:22.722Z,0
2018-12-29T04:45:23.393Z,0
2018-12-29T04:46:24.063Z,0
2018-12-29T04:47:24.734Z,0
2018-12-29T04:48:25.406Z,0
2018-12-29T04:49:26.074Z,0
2018-12-29T04:50:26.746Z,0
2018-12-29T04:51:27.416Z,0
2018-12-29T04:52:28.085Z,0
2018-12-29T04:53:28.756Z,0
2018-12-29T04:54:29.427Z,0
2018-12-29T04:55:30.096Z,0
2018-12-29T04:56:30.765Z,0
2018-12-29T04:57:31.437Z,0
2018-12-29T04:58:32.107Z,0
2018-12-29T04:59:32.779Z,0
2018-12-29T05:00:33.448Z,0
2018-12-29T05:01:34.118Z,0
2018-12-29T05:02:34.788Z,0
2018-12-29T05:03:35.458Z,0
2018-12-29T05:04:36.128Z,0
2018-12-29T05:05:36.801Z,0
2018-12-29T05:06:37.470Z,0
2018-12-29T05:07:38.141Z,0
2018-12-29T05:08:38.812Z,0
2018-12-29T05:09:39.482Z,0
2018-12-29T05:10:40.153Z,0
2018-12-29T05:11:40.822Z,0
2018-12-29T05:12:41.490Z,0
2018-12-29T05:13:42.162Z,0
2018-12-29T05:14:42.830Z,0
2018-12-29T05:15:43.500Z,0
2018-12-29T05:16:44.170Z,0
2018-12-29T05:17:44.841Z,0
2018-12-29T05:18:45.512Z,0
2018-12-29T05:19:46.232Z,0
2018-12-29T05:20:46.855Z,0
2018-12-29T05:21:47.575Z,0
2018-12-29T05:22:48.245Z,0
2018-12-29T05:23:48.916Z,0
2018-12-29T05:24:49.586Z,0
2018-12-29T05:25:50.256Z,0
2018-12-29T05:26:50.927Z,0
2018-12-29T05:27:51.598Z,0
2018-12-29T05:28:52.267Z,0
2018-12-29T05:29:52.938Z,0
2018-12-29T05:30:53.609Z,0
2018-12-29T05:31:54.279Z,0
2018-12-29T05:32:54.949Z,0
2018-12-29T05:33:55.620Z,0
2018-12-29T05:34:56.340Z,0
2018-12-29T05:35:57.008Z,0
2018-12-29T05:36:57.679Z,0
2018-12-29T05:37:58.349Z,0
2018-12-29T05:38:59.019Z,0
2018-12-29T05:39:59.691Z,0
2018-12-29T05:41:00.359Z,0
2018-12-29T05:42:01.027Z,0
2018-12-29T05:43:01.704Z,0
2018-12-29T05:44:02.419Z,0
2018-12-29T05:45:03.748Z,0
2018-12-29T05:46:04.441Z,0
2018-12-29T05:47:05.111Z,0
2018-12-29T05:48:05.829Z,0
2018-12-29T05:49:06.501Z,0
2018-12-29T05:50:07.172Z,0
2018-12-29T05:51:07.841Z,0
2018-12-29T05:52:08.512Z,0
2018-12-29T05:53:09.182Z,0
2018-12-29T05:54:09.850Z,0
2018-12-29T05:55:10.518Z,0
2018-12-29T05:56:11.189Z,0
2018-12-29T05:57:11.857Z,0
2018-12-29T05:58:12.528Z,0
2018-12-29T05:59:13.199Z,0
2018-12-29T06:00:13.867Z,0
2018-12-29T06:01:14.536Z,0
2018-12-29T06:02:15.208Z,0
2018-12-29T06:03:15.877Z,0
2018-12-29T06:04:16.547Z,0
2018-12-29T06:05:17.216Z,0
2018-12-29T06:06:17.887Z,0
2018-12-29T06:07:18.558Z,0
2018-12-29T06:08:19.228Z,0
2018-12-29T06:09:19.900Z,0
2018-12-29T06:10:20.569Z,0
2018-12-29T06:11:21.246Z,0
2018-12-29T06:12:21.908Z,0
2018-12-29T06:13:22.578Z,0
2018-12-29T06:14:23.247Z,0
2018-12-29T06:15:23.917Z,0
2018-12-29T06:16:27.883Z,0
2018-12-29T06:17:25.302Z,0
2018-12-29T06:18:25.971Z,0
2018-12-29T06:19:26.642Z,0
2018-12-29T06:20:27.312Z,0
2018-12-29T06:21:27.982Z,0
2018-12-29T06:22:28.653Z,0
2018-12-29T06:23:29.321Z,0
2018-12-29T06:24:29.994Z,0
2018-12-29T06:25:30.709Z,0
2018-12-29T06:26:31.428Z,0
2018-12-29T06:27:32.097Z,0
2018-12-29T06:28:32.766Z,0
2018-12-29T06:29:33.438Z,0
2018-12-29T06:30:34.109Z,0
2018-12-29T06:31:34.828Z,0
2018-12-29T06:32:35.497Z,0
2018-12-29T06:33:36.189Z,0
2018-12-29T06:34:36.858Z,0
2018-12-29T06:35:37.531Z,0
2018-12-29T06:36:38.200Z,0
2018-12-29T06:37:38.920Z,0
2018-12-29T06:38:39.586Z,0
2018-12-29T06:39:40.256Z,0
2018-12-29T06:40:40.926Z,0
2018-12-29T06:41:41.596Z,0
2018-12-29T06:42:42.265Z,0
2018-12-29T06:43:42.935Z,0
2018-12-29T06:44:43.610Z,0
2018-12-29T06:45:44.276Z,4
2018-12-29T06:46:44.948Z,0
2018-12-29T06:47:45.617Z,0
2018-12-29T06:48:46.287Z,0
2018-12-29T06:49:46.957Z,4
2018-12-29T06:50:47.676Z,4
2018-12-29T06:51:48.346Z,4
2018-12-29T06:52:49.017Z,4
2018-12-29T06:53:49.688Z,4
2018-12-29T06:54:50.359Z,4
2018-12-29T06:55:51.025Z,8
2018-12-29T06:56:51.698Z,4
2018-12-29T06:57:52.377Z,4
2018-12-29T06:58:53.049Z,8
2018-12-29T06:59:53.719Z,8
2018-12-29T07:00:54.421Z,12
2018-12-29T07:01:55.066Z,8
2018-12-29T07:02:55.733Z,12
2018-12-29T07:03:56.403Z,16
2018-12-29T07:04:57.075Z,20
2018-12-29T07:05:57.746Z,20
2018-12-29T07:06:58.466Z,20
2018-12-29T07:07:59.139Z,24
2018-12-29T07:08:59.809Z,28
2018-12-29T07:10:00.480Z,32
2018-12-29T07:11:01.153Z,36
2018-12-29T07:12:01.826Z,40
2018-12-29T07:13:02.497Z,48
2018-12-29T07:14:03.167Z,48
2018-12-29T07:15:03.839Z,52
2018-12-29T07:16:04.509Z,60
2018-12-29T07:17:05.231Z,68
2018-12-29T07:18:05.902Z,68
2018-12-29T07:19:06.575Z,72
2018-12-29T07:20:07.246Z,84
2018-12-29T07:21:07.918Z,92
2018-12-29T07:22:08.639Z,92
2018-12-29T07:23:09.311Z,96
2018-12-29T07:24:09.982Z,108
2018-12-29T07:25:10.654Z,112
2018-12-29T07:26:11.327Z,120
2018-12-29T07:27:12.010Z,132
2018-12-29T07:28:12.720Z,144
2018-12-29T07:29:13.392Z,152
2018-12-29T07:30:14.062Z,164
2018-12-29T07:31:14.734Z,160
2018-12-29T07:32:15.406Z,172
2018-12-29T07:33:16.079Z,196
2018-12-29T07:34:16.751Z,224
2018-12-29T07:35:17.423Z,260
2018-12-29T07:36:18.097Z,280
2018-12-29T07:37:18.771Z,296
2018-12-29T07:38:19.442Z,312
2018-12-29T07:39:20.117Z,288
2018-12-29T07:40:20.788Z,260
2018-12-29T07:41:21.461Z,276
2018-12-29T07:42:22.135Z,300
2018-12-29T07:43:22.807Z,328
2018-12-29T07:44:23.482Z,352
2018-12-29T07:45:24.155Z,380
2018-12-29T07:46:24.832Z,392
2018-12-29T07:47:25.503Z,388
2018-12-29T07:48:26.224Z,408
2018-12-29T07:49:26.945Z,420
2018-12-29T07:50:27.617Z,416
2018-12-29T07:51:28.293Z,408
2018-12-29T07:52:28.967Z,408
2018-12-29T07:53:29.639Z,416
2018-12-29T07:54:30.312Z,440
2018-12-29T07:55:30.986Z,452
2018-12-29T07:56:31.659Z,464
2018-12-29T07:57:32.330Z,480
2018-12-29T07:58:33.003Z,524
2018-12-29T07:59:33.727Z,556
2018-12-29T08:00:34.353Z,560
2018-12-29T08:01:35.024Z,568
2018-12-29T08:02:35.697Z,596
2018-12-29T08:03:36.372Z,648
2018-12-29T08:04:37.045Z,712
2018-12-29T08:05:37.718Z,788
2018-12-29T08:06:38.390Z,856
2018-12-29T08:07:39.065Z,900
2018-12-29T08:08:39.737Z,940
2018-12-29T08:09:40.409Z,972
2018-12-29T08:10:41.084Z,980
2018-12-29T08:11:41.757Z,968
2018-12-29T08:12:42.430Z,972
2018-12-29T08:13:43.110Z,996
2018-12-29T08:14:43.777Z,1000
2018-12-29T08:15:44.453Z,1008
2018-12-29T08:16:45.128Z,1008
2018-12-29T08:17:45.804Z,1048
2018-12-29T08:18:46.525Z,1104
2018-12-29T08:19:47.199Z,1148
2018-12-29T08:20:47.920Z,1168
2018-12-29T08:21:48.594Z,1144
2018-12-29T08:22:49.271Z,1108
2018-12-29T08:23:49.946Z,1092
2018-12-29T08:24:50.625Z,1136
2018-12-29T08:25:51.293Z,1208
2018-12-29T08:26:51.966Z,1268
2018-12-29T08:27:52.643Z,1308
2018-12-29T08:28:53.316Z,1308
2018-12-29T08:29:53.991Z,1352
2018-12-29T08:30:54.664Z,1412
2018-12-29T08:31:55.341Z,1412
2018-12-29T08:32:56.018Z,1288
2018-12-29T08:33:56.691Z,1164
2018-12-29T08:34:57.415Z,1108
2018-12-29T08:35:58.090Z,1092
2018-12-29T08:36:58.764Z,1124
2018-12-29T08:37:59.439Z,1208
2018-12-29T08:39:00.114Z,1316
2018-12-29T08:40:00.791Z,1444
2018-12-29T08:41:01.466Z,1580
2018-12-29T08:42:02.140Z,1648
2018-12-29T08:43:02.815Z,1584
2018-12-29T08:44:03.491Z,1464
2018-12-29T08:45:04.165Z,1404
2018-12-29T08:46:04.841Z,1368
2018-12-29T08:47:05.515Z,1300
2018-12-29T08:48:06.189Z,1192
2018-12-29T08:49:06.864Z,1124
2018-12-29T08:50:13.049Z,1124
2018-12-29T08:51:09.206Z,1152
2018-12-29T08:52:09.882Z,1164
2018-12-29T08:53:10.556Z,1168
2018-12-29T08:54:11.235Z,1172
2018-12-29T08:55:11.956Z,1184
2018-12-29T08:56:12.629Z,1184
2018-12-29T08:57:13.304Z,1200
2018-12-29T08:58:13.977Z,1248
2018-12-29T08:59:14.653Z,1304
2018-12-29T09:00:15.329Z,1332
2018-12-29T09:01:16.074Z,1368
2018-12-29T09:02:16.708Z,1420
2018-12-29T09:03:17.382Z,1440
2018-12-29T09:04:18.056Z,1412
2018-12-29T09:05:18.731Z,1388
2018-12-29T09:06:19.409Z,1372
2018-12-29T09:07:20.080Z,1396
2018-12-29T09:08:20.756Z,1464
2018-12-29T09:09:21.429Z,1540
2018-12-29T09:10:22.105Z,1600
2018-12-29T09:11:22.780Z,1608
2018-12-29T09:12:23.457Z,1572
2018-12-29T09:13:24.130Z,1532
2018-12-29T09:14:24.804Z,1612
2018-12-29T09:15:25.480Z,1772
2018-12-29T09:16:26.165Z,1868
2018-12-29T09:17:26.831Z,1856
2018-12-29T09:18:27.553Z,1808
2018-12-29T09:19:28.237Z,1792
2018-12-29T09:20:28.903Z,1768
2018-12-29T09:21:29.578Z,1804
2018-12-29T09:22:30.255Z,1900
2018-12-29T09:23:30.929Z,2088
2018-12-29T09:24:31.604Z,2208
2018-12-29T09:25:32.286Z,2176
2018-12-29T09:26:33.005Z,2100
2018-12-29T09:27:33.681Z,2076
2018-12-29T09:28:34.356Z,2084
2018-12-29T09:29:35.032Z,2060
2018-12-29T09:30:35.706Z,2028
2018-12-29T09:31:36.382Z,2048
2018-12-29T09:32:37.073Z,2172
2018-12-29T09:33:37.734Z,2356
2018-12-29T09:34:38.408Z,2544
2018-12-29T09:35:39.082Z,2624
2018-12-29T09:36:39.757Z,2496
2018-12-29T09:37:40.434Z,2356
2018-12-29T09:38:41.158Z,2304
2018-12-29T09:39:41.835Z,2288
2018-12-29T09:40:42.511Z,2348
2018-12-29T09:41:43.188Z,2436
2018-12-29T09:42:43.862Z,2548
2018-12-29T09:43:44.536Z,2584
2018-12-29T09:44:45.213Z,2456
2018-12-29T09:45:45.888Z,2392
2018-12-29T09:46:46.565Z,2368
2018-12-29T09:47:47.241Z,2372
2018-12-29T09:48:47.916Z,2504
2018-12-29T09:49:48.596Z,2780
2018-12-29T09:50:49.316Z,3000
2018-12-29T09:51:49.993Z,3116
2018-12-29T09:52:50.669Z,3148
2018-12-29T09:53:51.345Z,3184
2018-12-29T09:54:52.024Z,3148
2018-12-29T09:55:52.745Z,3092
2018-12-29T09:56:53.419Z,3076
2018-12-29T09:57:54.094Z,3124
2018-12-29T09:58:54.771Z,3116
2018-12-29T09:59:55.450Z,3004
2018-12-29T10:00:56.125Z,2808
2018-12-29T10:01:56.799Z,2676
2018-12-29T10:02:57.477Z,2632
2018-12-29T10:03:58.198Z,2652
2018-12-29T10:04:58.872Z,2724
2018-12-29T10:05:59.551Z,2868
2018-12-29T10:07:00.224Z,2944
2018-12-29T10:08:00.899Z,2948
2018-12-29T10:09:01.575Z,2988
2018-12-29T10:10:02.249Z,2972
2018-12-29T10:11:02.925Z,2788
2018-12-29T10:12:03.601Z,2628
2018-12-29T10:13:04.273Z,2584
2018-12-29T10:14:04.950Z,2544
2018-12-29T10:15:05.626Z,2532
2018-12-29T10:16:06.302Z,2604
2018-12-29T10:17:06.976Z,2700
2018-12-29T10:18:07.650Z,2708
2018-12-29T10:19:08.327Z,2744
2018-12-29T10:20:09.003Z,2764
2018-12-29T10:21:09.726Z,2728
2018-12-29T10:22:10.399Z,2720
2018-12-29T10:23:11.073Z,2732
2018-12-29T10:24:11.750Z,2744
2018-12-29T10:25:12.475Z,2800
2018-12-29T10:26:13.151Z,2892
2018-12-29T10:27:13.828Z,2996
2018-12-29T10:28:14.549Z,3048
2018-12-29T10:29:15.225Z,3132
2018-12-29T10:30:15.900Z,3180
2018-12-29T10:31:16.577Z,3136
2018-12-29T10:32:17.252Z,3064
2018-12-29T10:33:17.927Z,2988
2018-12-29T10:34:18.603Z,2820
2018-12-29T10:35:19.279Z,2816
2018-12-29T10:36:19.953Z,3068
2018-12-29T10:37:20.629Z,3284
2018-12-29T10:38:21.305Z,3208
2018-12-29T10:39:21.984Z,3076
2018-12-29T10:40:22.655Z,2996
2018-12-29T10:41:23.330Z,2848
2018-12-29T10:42:24.006Z,2568
2018-12-29T10:43:24.682Z,2232
2018-12-29T10:44:25.357Z,1992
2018-12-29T10:45:26.031Z,1920
2018-12-29T10:46:26.706Z,1912
2018-12-29T10:47:34.332Z,1872
2018-12-29T10:48:29.052Z,1916
2018-12-29T10:49:29.779Z,2100
2018-12-29T10:50:30.461Z,2640
2018-12-29T10:51:31.180Z,3472
2018-12-29T10:52:31.855Z,3772
2018-12-29T10:53:32.532Z,3976
2018-12-29T10:54:33.210Z,4144
2018-12-29T10:55:33.885Z,4300
2018-12-29T10:56:34.562Z,4068
2018-12-29T10:57:35.236Z,4248
2018-12-29T10:58:36.039Z,4448
2018-12-29T10:59:36.717Z,3972
2018-12-29T11:00:37.392Z,3736
2018-12-29T11:01:38.069Z,3604
2018-12-29T11:02:38.744Z,3440
2018-12-29T11:03:39.422Z,3240
2018-12-29T11:04:40.125Z,3108
2018-12-29T11:05:40.885Z,3088
2018-12-29T11:06:41.562Z,3140
2018-12-29T11:07:42.238Z,3144
2018-12-29T11:08:42.926Z,3128
2018-12-29T11:09:43.650Z,3084
2018-12-29T11:10:44.325Z,3020
2018-12-29T11:11:45.001Z,2916
2018-12-29T11:12:45.677Z,2824
2018-12-29T11:13:46.354Z,2872
2018-12-29T11:14:47.032Z,3056
2018-12-29T11:15:47.708Z,3216
2018-12-29T11:16:48.385Z,3204
2018-12-29T11:17:49.063Z,3148
2018-12-29T11:18:49.847Z,3176
2018-12-29T11:19:50.535Z,3216
2018-12-29T11:20:51.214Z,3112
2018-12-29T11:21:51.899Z,2948
2018-12-29T11:22:52.575Z,2772
2018-12-29T11:23:53.302Z,2500
2018-12-29T11:24:53.982Z,2404
2018-12-29T11:25:54.666Z,2316
2018-12-29T11:26:55.349Z,2280
2018-12-29T11:27:56.025Z,2316
2018-12-29T11:28:56.700Z,2220
2018-12-29T11:29:57.378Z,2192
2018-12-29T11:30:58.052Z,2208
2018-12-29T11:31:58.727Z,2224
2018-12-29T11:32:59.404Z,2196
2018-12-29T11:34:00.082Z,2132
2018-12-29T11:35:00.758Z,2088
2018-12-29T11:36:01.431Z,2080
2018-12-29T11:37:02.107Z,2156
2018-12-29T11:38:02.783Z,2236
2018-12-29T11:39:03.458Z,2256
2018-12-29T11:40:04.194Z,2200
2018-12-29T11:41:04.869Z,2144
2018-12-29T11:42:05.562Z,2112
2018-12-29T11:43:06.237Z,2096
2018-12-29T11:44:06.914Z,2060
2018-12-29T11:45:07.691Z,2056
2018-12-29T11:46:08.367Z,2112
2018-12-29T11:47:09.141Z,2172
2018-12-29T11:48:09.869Z,2192
2018-12-29T11:49:17.846Z,2200
2018-12-29T11:50:12.208Z,2224
2018-12-29T11:51:12.890Z,2224
2018-12-29T11:52:13.661Z,2236
2018-12-29T11:53:14.327Z,2244
2018-12-29T11:54:15.005Z,2256
2018-12-29T11:55:15.681Z,2240
2018-12-29T11:56:16.356Z,2188
2018-12-29T11:57:17.030Z,2156
2018-12-29T11:58:17.706Z,2144
2018-12-29T11:59:18.383Z,2136
2018-12-29T12:00:19.060Z,2140
2018-12-29T12:01:19.734Z,2144
2018-12-29T12:02:24.447Z,2080
2018-12-29T12:03:22.077Z,2068
2018-12-29T12:04:23.094Z,2128
2018-12-29T12:05:23.820Z,2164
2018-12-29T12:06:24.497Z,2148
2018-12-29T12:07:25.172Z,2124
2018-12-29T12:08:25.847Z,2092
2018-12-29T12:09:26.522Z,2004
2018-12-29T12:10:27.197Z,1944
2018-12-29T12:11:27.875Z,1892
2018-12-29T12:12:28.549Z,1900
2018-12-29T12:13:29.227Z,1960
2018-12-29T12:14:30.151Z,2060
2018-12-29T12:15:30.854Z,2112
2018-12-29T12:16:31.541Z,2080
2018-12-29T12:17:32.254Z,2028
2018-12-29T12:18:32.930Z,1884
2018-12-29T12:19:33.605Z,1984
2018-12-29T12:20:34.282Z,1964
2018-12-29T12:21:34.959Z,1864
2018-12-29T12:22:35.632Z,1668
2018-12-29T12:23:36.311Z,1476
2018-12-29T12:24:37.229Z,1420
2018-12-29T12:25:37.905Z,1384
2018-12-29T12:26:38.954Z,1304
2018-12-29T12:27:39.679Z,1276
2018-12-29T12:28:40.353Z,1276
2018-12-29T12:29:41.035Z,1276
2018-12-29T12:30:41.762Z,1284
2018-12-29T12:31:42.644Z,1260
2018-12-29T12:32:43.318Z,1220
2018-12-29T12:33:43.993Z,1212
2018-12-29T12:34:44.670Z,1240
2018-12-29T12:35:45.345Z,1324
2018-12-29T12:36:46.297Z,1544
2018-12-29T12:37:46.974Z,1748
2018-12-29T12:38:47.701Z,1584
2018-12-29T12:39:48.427Z,1520
2018-12-29T12:40:49.150Z,1588
2018-12-29T12:41:49.992Z,1728
2018-12-29T12:42:50.668Z,1920
2018-12-29T12:43:51.341Z,2100
2018-12-29T12:44:52.016Z,2280
2018-12-29T12:45:52.690Z,2356
2018-12-29T12:46:53.367Z,2308
2018-12-29T12:47:54.141Z,2228
2018-12-29T12:48:54.893Z,2200
2018-12-29T12:49:55.702Z,2120
2018-12-29T12:50:56.634Z,2040
2018-12-29T12:51:57.310Z,1932
2018-12-29T12:52:57.984Z,1756
2018-12-29T12:53:58.688Z,1656
2018-12-29T12:54:59.519Z,1508
2018-12-29T12:56:00.199Z,1468
2018-12-29T12:57:01.068Z,1532
2018-12-29T12:58:02.078Z,1596
2018-12-29T12:59:03.093Z,1664
2018-12-29T13:00:03.765Z,1748
2018-12-29T13:01:04.798Z,1768
2018-12-29T13:02:05.815Z,1720
2018-12-29T13:03:06.540Z,1680
2018-12-29T13:04:07.218Z,1692
2018-12-29T13:05:07.893Z,1744
2018-12-29T13:06:08.568Z,1760
2018-12-29T13:07:09.243Z,1764
2018-12-29T13:08:09.918Z,1740
2018-12-29T13:09:10.595Z,1664
2018-12-29T13:10:11.271Z,1616
2018-12-29T13:11:11.946Z,1544
2018-12-29T13:12:12.876Z,1476
2018-12-29T13:13:13.551Z,1444
2018-12-29T13:14:14.275Z,1452
2018-12-29T13:15:14.952Z,1488
2018-12-29T13:16:15.627Z,1560
2018-12-29T13:17:16.303Z,1648
2018-12-29T13:18:16.978Z,1748
2018-12-29T13:19:17.706Z,1860
2018-12-29T13:20:18.382Z,1936
2018-12-29T13:21:19.058Z,1896
2018-12-29T13:22:19.926Z,1792
2018-12-29T13:23:20.602Z,1736
2018-12-29T13:24:21.278Z,1716
2018-12-29T13:25:21.953Z,1720
2018-12-29T13:26:22.630Z,1756
2018-12-29T13:27:23.302Z,1772
2018-12-29T13:28:23.979Z,1732
2018-12-29T13:29:24.655Z,1660
2018-12-29T13:30:25.382Z,1576
2018-12-29T13:31:26.033Z,1512
2018-12-29T13:32:26.710Z,1424
2018-12-29T13:33:27.383Z,1312
2018-12-29T13:34:28.059Z,1260
2018-12-29T13:35:28.735Z,1252
2018-12-29T13:36:29.409Z,1248
2018-12-29T13:37:30.135Z,1240
2018-12-29T13:38:30.809Z,1192
2018-12-29T13:39:31.486Z,1128
2018-12-29T13:40:32.162Z,1112
2018-12-29T13:41:32.958Z,1144
2018-12-29T13:42:33.682Z,1208
2018-12-29T13:43:34.357Z,1208
2018-12-29T13:44:35.034Z,1128
2018-12-29T13:45:35.709Z,1100
2018-12-29T13:46:36.434Z,1160
2018-12-29T13:47:37.111Z,1164
2018-12-29T13:48:37.784Z,1100
2018-12-29T13:49:38.459Z,1008
2018-12-29T13:50:39.477Z,960
2018-12-29T13:51:40.211Z,908
2018-12-29T13:52:40.882Z,844
2018-12-29T13:53:41.555Z,848
2018-12-29T13:54:42.229Z,876
2018-12-29T13:55:42.901Z,832
2018-12-29T13:56:43.575Z,780
2018-12-29T13:57:44.250Z,780
2018-12-29T13:58:44.922Z,808
2018-12-29T13:59:45.596Z,892
2018-12-29T14:00:46.269Z,988
2018-12-29T14:01:46.946Z,1052
2018-12-29T14:02:47.647Z,1072
2018-12-29T14:03:48.626Z,1132
2018-12-29T14:04:49.351Z,1188
2018-12-29T14:05:50.034Z,1216
2018-12-29T14:06:50.752Z,1228
2018-12-29T14:07:51.429Z,1216
2018-12-29T14:08:52.149Z,1176
2018-12-29T14:09:52.818Z,1128
2018-12-29T14:10:53.498Z,1096
2018-12-29T14:11:54.170Z,1072
2018-12-29T14:12:54.871Z,1036